Abisko, Sweden

6:16 PM CEST on August 24, 2016 (GMT +0200)
Solpiggen | | Change Station

Elev 1623 ft 68.43 °N, 18.12 °E | Updated 15 seconds ago

Clear
Clear
59.4 °F
Feels Like 59.4 °F
N
4.5
Wind Variable Wind from East
Gusts 6.0 mph

Today
High -- | Low -- °F
--% Chance of Precip.
Yesterday
High -- | Low -- °F
Precip. -- in
Pressure 30.09 in
Visibility -9999.0 miles
Clouds
Dew Point 46 °F
Humidity 62%
Rainfall 0.00 in
Snow Depth Not available.
4:39 AM 8:51 PM
Waning Gibbous, 55% visible
METAR ENNK 241550Z 23003KT CAVOK 17/09 Q1019
Pressure 30.09 in
Visibility -9999.0 miles
Clouds
Dew Point 46 °F
Humidity 62%
Rainfall 0.00 in
Snow Depth Not available.
4:39 AM 8:51 PM
Waning Gibbous, 55% visible
METAR ENNK 241550Z 23003KT CAVOK 17/09 Q1019

10-Day Weather Forecast

×

Almanac

Astronomy

Aug. 24, 2016 Rise Set
Actual Time
Civil Twilight
Nautical Twilight
Astronomical Twilight
Moon
Length of Visible Light
Length of Day
Tomorrow will be .
, % of the Moon is Illuminated

Today's Extremes

Country Highs Country Lows

Community

WunderPhotos

Upload Photos

1,934,648 photos uploaded!

WunderBlog® & News

Nearby

Air Quality

  Air Quality AQ Index Pollutant
Not available.

Snow Depth

Station Depth Elevation

Earthquake Activity

City Distance Mag. Time & Date
Minimum magnitude displayed is 2.5.

Coastal Water Temperatures

Place Temperature

Stations

Nearby Weather Stations

Station Location Temp. Windchill Dew Point Humidity Wind Precip. Elev Updated Type